createdAt,value
2022-08-07T00:00:26.576Z,86.40
2022-08-07T00:02:56.105Z,86.51
2022-08-07T00:05:24.186Z,86.88
2022-08-07T00:07:59.915Z,87.57
2022-08-07T00:10:30.417Z,88.16
2022-08-07T00:13:02.476Z,88.55
2022-08-07T00:15:46.187Z,88.13
2022-08-07T00:18:19.789Z,88.76
2022-08-07T00:20:50.765Z,88.33
2022-08-07T00:23:21.370Z,88.97
2022-08-07T00:25:58.867Z,89.89
2022-08-07T00:28:33.807Z,88.93
2022-08-07T00:31:06.388Z,89.99
2022-08-07T00:33:40.958Z,89.68
2022-08-07T00:36:08.762Z,89.03
2022-08-07T00:38:37.451Z,90.33
2022-08-07T00:41:10.055Z,89.57
2022-08-07T00:43:58.939Z,89.86
2022-08-07T00:46:29.204Z,91.37
2022-08-07T00:48:56.251Z,91.98
2022-08-07T00:51:57.306Z,91.57
2022-08-07T00:54:19.672Z,91.74
2022-08-07T00:56:49.552Z,91.60
2022-08-07T00:59:20.342Z,92.45
2022-08-07T01:01:59.710Z,92.04
2022-08-07T01:04:26.900Z,92.77
2022-08-07T01:06:57.312Z,91.30
2022-08-07T01:10:04.332Z,92.67
2022-08-07T01:12:30.177Z,92.88
2022-08-07T01:15:00.947Z,92.44
2022-08-07T01:17:29.338Z,93.69
2022-08-07T01:20:02.049Z,93.24
2022-08-07T01:22:31.336Z,92.90
2022-08-07T01:24:59.480Z,94.43
2022-08-07T01:27:27.220Z,93.69
2022-08-07T01:30:00.497Z,93.50
2022-08-07T01:32:28.013Z,94.81
2022-08-07T01:34:56.023Z,95.01
2022-08-07T01:37:24.704Z,95.23
2022-08-07T01:39:53.108Z,94.88
2022-08-07T01:42:38.329Z,94.77
2022-08-07T01:45:15.777Z,95.74
2022-08-07T01:48:19.359Z,96.48
2022-08-07T01:50:33.067Z,95.33
2022-08-07T01:53:04.893Z,96.27
2022-08-07T01:56:02.960Z,95.55
2022-08-07T01:58:37.496Z,95.92
2022-08-07T02:01:44.776Z,95.41
2022-08-07T02:04:14.026Z,96.33
2022-08-07T02:06:44.433Z,96.30
2022-08-07T02:09:51.870Z,97.32
2022-08-07T02:12:17.862Z,96.01
2022-08-07T02:14:52.939Z,96.34
2022-08-07T02:17:25.009Z,97.34
2022-08-07T02:20:04.873Z,96.38
2022-08-07T02:22:41.155Z,96.34
2022-08-07T02:25:14.002Z,96.00
2022-08-07T02:27:51.199Z,96.54
2022-08-07T02:30:19.579Z,97.22
2022-08-07T02:33:03.952Z,97.24
2022-08-07T02:36:30.176Z,97.37
2022-08-07T02:38:32.376Z,98.01
2022-08-07T02:41:01.488Z,98.30
2022-08-07T02:43:31.734Z,97.86
2022-08-07T02:46:02.380Z,97.52
2022-08-07T02:48:31.014Z,97.47
2022-08-07T02:51:01.503Z,98.49
2022-08-07T02:53:33.997Z,99.71
2022-08-07T02:56:17.523Z,99.56
2022-08-07T02:58:54.230Z,98.78
2022-08-07T03:01:35.006Z,98.80
2022-08-07T03:04:07.035Z,99.20
2022-08-07T03:06:39.954Z,100.00
2022-08-07T03:09:11.164Z,99.33
2022-08-07T03:11:51.645Z,100.00
2022-08-07T03:14:22.604Z,99.04
2022-08-07T03:16:49.781Z,98.75
2022-08-07T03:19:20.322Z,99.61
2022-08-07T03:21:50.471Z,99.80
2022-08-07T03:24:25.951Z,99.84
2022-08-07T03:26:59.797Z,99.90
2022-08-07T03:29:37.421Z,100.00
2022-08-07T03:32:08.282Z,100.00
2022-08-07T03:34:47.319Z,99.77
2022-08-07T03:37:29.573Z,99.81
2022-08-07T03:40:16.001Z,100.00
2022-08-07T03:42:44.262Z,100.00
2022-08-07T03:45:12.916Z,99.59
2022-08-07T03:47:58.227Z,99.88
2022-08-07T03:50:25.679Z,99.04
2022-08-07T03:52:59.871Z,99.96
2022-08-07T03:55:52.887Z,100.00
2022-08-07T03:59:07.401Z,100.00
2022-08-07T04:01:07.633Z,100.00
2022-08-07T04:03:38.826Z,100.00
2022-08-07T04:06:37.118Z,100.00
2022-08-07T04:09:06.384Z,100.00
2022-08-07T04:12:23.525Z,100.00
2022-08-07T04:14:38.064Z,100.00
2022-08-07T04:17:20.108Z,100.00
2022-08-07T04:19:52.170Z,100.00
2022-08-07T04:22:23.288Z,100.00
2022-08-07T04:24:55.064Z,100.00
2022-08-07T04:27:25.629Z,100.00
2022-08-07T04:30:01.565Z,100.00
2022-08-07T04:32:34.421Z,100.00
2022-08-07T04:35:05.589Z,100.00
2022-08-07T04:38:01.072Z,100.00
2022-08-07T04:40:22.036Z,100.00
2022-08-07T04:42:53.649Z,100.00
2022-08-07T04:45:52.119Z,100.00
2022-08-07T04:48:28.271Z,100.00
2022-08-07T04:51:10.274Z,100.00
2022-08-07T04:54:01.966Z,100.00
2022-08-07T04:58:13.809Z,100.00
2022-08-07T05:00:09.665Z,100.00
2022-08-07T05:03:00.991Z,100.00
2022-08-07T05:05:54.241Z,100.00
2022-08-07T05:08:59.349Z,100.00
2022-08-07T05:11:24.260Z,100.00
2022-08-07T05:14:52.258Z,100.00
2022-08-07T05:16:53.975Z,100.00
2022-08-07T05:19:32.651Z,100.00
2022-08-07T05:22:13.207Z,100.00
2022-08-07T05:24:59.715Z,100.00
2022-08-07T05:28:16.942Z,100.00
2022-08-07T05:30:30.005Z,100.00
2022-08-07T05:32:59.780Z,100.00
2022-08-07T05:35:33.371Z,100.00
2022-08-07T05:38:09.066Z,100.00
2022-08-07T05:40:50.584Z,100.00
2022-08-07T05:43:19.447Z,100.00
2022-08-07T05:46:06.982Z,100.00
2022-08-07T05:48:34.241Z,100.00
2022-08-07T05:51:03.374Z,100.00
2022-08-07T05:54:12.676Z,100.00
2022-08-07T05:56:20.246Z,100.00
2022-08-07T05:59:01.517Z,100.00
2022-08-07T06:01:35.882Z,100.00
2022-08-07T06:04:04.872Z,100.00
2022-08-07T06:06:34.646Z,97.96
2022-08-07T06:09:04.315Z,97.72
2022-08-07T06:11:33.837Z,96.92
2022-08-07T06:14:12.958Z,97.17
2022-08-07T06:16:50.714Z,96.12
2022-08-07T06:19:47.523Z,96.15
2022-08-07T06:22:15.937Z,94.97
2022-08-07T06:24:58.331Z,94.68
2022-08-07T06:27:44.224Z,94.55
2022-08-07T06:30:32.173Z,94.62
2022-08-07T06:33:04.013Z,93.87
2022-08-07T06:35:45.588Z,92.93
2022-08-07T06:38:20.157Z,89.48
2022-08-07T06:40:51.235Z,87.36
2022-08-07T06:43:23.605Z,85.75
2022-08-07T06:45:51.675Z,84.27
2022-08-07T06:48:25.046Z,83.50
2022-08-07T06:50:55.022Z,82.90
2022-08-07T06:55:28.350Z,82.24
2022-08-07T06:56:14.844Z,81.27
2022-08-07T07:00:14.546Z,78.85
2022-08-07T07:01:43.702Z,76.98
2022-08-07T07:04:32.608Z,76.45
2022-08-07T07:07:10.666Z,74.63
2022-08-07T07:09:48.184Z,73.89
2022-08-07T07:12:31.470Z,74.32
2022-08-07T07:15:24.133Z,72.61
2022-08-07T07:18:01.155Z,72.29
2022-08-07T07:20:34.091Z,71.88
2022-08-07T07:24:08.348Z,70.33
2022-08-07T07:26:34.780Z,70.14
2022-08-07T07:29:56.559Z,70.17
2022-08-07T07:31:51.724Z,70.98
2022-08-07T07:34:30.933Z,69.66
2022-08-07T07:37:14.317Z,69.06
2022-08-07T07:39:54.297Z,68.37
2022-08-07T07:42:25.771Z,67.88
2022-08-07T07:45:02.312Z,67.98
2022-08-07T07:47:30.519Z,67.59
2022-08-07T07:50:32.745Z,66.91
2022-08-07T07:53:20.103Z,67.18
2022-08-07T07:55:54.841Z,67.46
2022-08-07T07:58:29.508Z,67.28
2022-08-07T08:00:59.136Z,67.60
2022-08-07T08:04:09.698Z,66.75
2022-08-07T08:06:18.726Z,65.85
2022-08-07T08:08:50.278Z,66.34
2022-08-07T08:11:47.118Z,66.27
2022-08-07T08:14:05.909Z,65.60
2022-08-07T08:16:49.484Z,65.08
2022-08-07T08:20:18.169Z,64.07
2022-08-07T08:22:33.216Z,64.49
2022-08-07T08:25:41.933Z,64.34
2022-08-07T08:28:16.867Z,64.42
2022-08-07T08:30:56.323Z,64.81
2022-08-07T08:33:25.206Z,63.38
2022-08-07T08:35:58.027Z,63.25
2022-08-07T08:38:44.622Z,62.63
2022-08-07T08:41:21.607Z,64.43
2022-08-07T08:44:14.912Z,61.78
2022-08-07T08:47:04.544Z,63.72
2022-08-07T08:50:35.413Z,62.99
2022-08-07T08:53:22.677Z,62.34
2022-08-07T08:56:02.967Z,61.65
2022-08-07T08:58:47.437Z,61.59
2022-08-07T09:01:46.511Z,61.98
2022-08-07T09:04:46.405Z,61.15
2022-08-07T09:07:46.156Z,61.64
2022-08-07T09:10:59.942Z,61.29
2022-08-07T09:13:45.420Z,60.39
2022-08-07T09:16:33.910Z,60.93
2022-08-07T09:19:51.289Z,59.73
2022-08-07T09:24:31.769Z,60.65
2022-08-07T09:25:39.457Z,59.61
2022-08-07T09:30:04.694Z,60.06
2022-08-07T09:31:33.661Z,59.75
2022-08-07T09:34:18.169Z,59.47
2022-08-07T09:37:17.022Z,59.90
2022-08-07T09:40:11.729Z,58.99
2022-08-07T09:42:58.735Z,59.25
2022-08-07T09:47:24.152Z,60.28
2022-08-07T09:50:01.739Z,57.62
2022-08-07T09:52:16.072Z,58.16
2022-08-07T09:56:02.886Z,57.96
2022-08-07T09:58:32.182Z,58.23
2022-08-07T10:01:53.825Z,58.16
2022-08-07T10:04:45.819Z,58.23
2022-08-07T10:07:53.068Z,55.59
2022-08-07T10:11:16.963Z,56.57
2022-08-07T10:14:01.294Z,55.57
2022-08-07T10:16:53.610Z,56.23
2022-08-07T10:19:41.136Z,55.38
2022-08-07T10:22:17.592Z,54.32
2022-08-07T10:25:07.210Z,55.44
2022-08-07T10:28:02.351Z,56.71
2022-08-07T10:30:59.120Z,54.33
2022-08-07T10:34:06.308Z,54.98
2022-08-07T10:36:49.281Z,53.04
2022-08-07T10:40:03.107Z,53.93
2022-08-07T10:42:57.377Z,54.54
2022-08-07T10:46:01.572Z,54.92
2022-08-07T10:48:36.132Z,56.62
2022-08-07T10:51:16.272Z,52.38
2022-08-07T10:54:21.996Z,52.71
2022-08-07T10:57:08.438Z,52.63
2022-08-07T11:00:04.282Z,51.51
2022-08-07T11:02:49.425Z,51.73
2022-08-07T11:05:50.902Z,52.58
2022-08-07T11:08:33.010Z,53.47
2022-08-07T11:11:08.213Z,52.39
2022-08-07T11:14:45.488Z,52.84
2022-08-07T11:16:39.643Z,52.17
2022-08-07T11:19:37.580Z,51.03
2022-08-07T11:22:26.622Z,51.93
2022-08-07T11:25:47.903Z,49.99
2022-08-07T11:28:24.760Z,49.50
2022-08-07T11:30:52.383Z,49.88
2022-08-07T11:33:54.267Z,50.29
2022-08-07T11:36:32.217Z,50.32
2022-08-07T11:39:14.599Z,49.92
2022-08-07T11:42:03.358Z,47.55
2022-08-07T11:44:58.916Z,48.57
2022-08-07T11:47:56.119Z,47.01
2022-08-07T11:50:57.371Z,48.80
2022-08-07T11:54:09.784Z,47.76
2022-08-07T11:56:56.252Z,47.80
2022-08-07T12:00:12.044Z,47.45
2022-08-07T12:03:42.076Z,47.38
2022-08-07T12:06:40.364Z,46.89
2022-08-07T12:09:36.753Z,46.67
2022-08-07T12:12:23.361Z,47.24
2022-08-07T12:15:46.540Z,48.00
2022-08-07T12:18:29.903Z,47.47
2022-08-07T12:21:10.685Z,47.10
2022-08-07T12:24:36.860Z,46.02
2022-08-07T12:27:05.243Z,45.18
2022-08-07T12:29:52.627Z,45.71
2022-08-07T12:32:42.944Z,44.96
2022-08-07T12:35:13.601Z,44.46
2022-08-07T12:38:10.659Z,44.59
2022-08-07T12:40:50.821Z,44.29
2022-08-07T12:44:01.800Z,44.27
2022-08-07T12:46:34.844Z,44.44
2022-08-07T12:49:48.866Z,44.85
2022-08-07T12:52:46.114Z,42.95
2022-08-07T12:55:41.044Z,41.27
2022-08-07T12:58:16.188Z,41.11
2022-08-07T13:01:17.490Z,41.87
2022-08-07T13:04:18.872Z,42.72
2022-08-07T13:07:08.338Z,42.74
2022-08-07T13:10:19.679Z,42.02
2022-08-07T13:13:11.193Z,41.78
2022-08-07T13:16:32.840Z,40.68
2022-08-07T13:20:13.410Z,39.52
2022-08-07T13:22:56.654Z,39.76
2022-08-07T13:25:32.132Z,40.47
2022-08-07T13:28:14.167Z,40.86
2022-08-07T13:31:02.182Z,40.45
2022-08-07T13:34:31.596Z,40.53
2022-08-07T13:36:59.473Z,40.49
2022-08-07T13:40:33.147Z,39.13
2022-08-07T13:42:25.766Z,41.01
2022-08-07T13:45:11.610Z,39.85
2022-08-07T13:48:08.250Z,41.09
2022-08-07T13:50:35.898Z,39.25
2022-08-07T13:53:26.591Z,39.14
2022-08-07T13:56:19.284Z,39.46
2022-08-07T13:59:05.468Z,38.89
2022-08-07T14:01:51.232Z,39.21
2022-08-07T14:04:29.735Z,39.11
2022-08-07T14:07:09.200Z,39.28
2022-08-07T14:10:01.912Z,38.36
2022-08-07T14:12:54.070Z,38.91
2022-08-07T14:15:35.279Z,38.94
2022-08-07T14:18:27.318Z,38.67
2022-08-07T14:21:08.179Z,38.29
2022-08-07T14:24:02.290Z,38.79
2022-08-07T14:27:02.563Z,38.63
2022-08-07T14:30:06.548Z,37.09
2022-08-07T14:32:43.098Z,36.17
2022-08-07T14:35:16.168Z,37.22
2022-08-07T14:38:06.141Z,38.44
2022-08-07T14:40:35.747Z,37.64
2022-08-07T14:43:57.910Z,37.71
2022-08-07T14:46:04.009Z,38.14
2022-08-07T14:48:33.479Z,39.49
2022-08-07T14:52:04.989Z,39.73
2022-08-07T14:54:34.558Z,42.02
2022-08-07T14:57:06.795Z,44.05
2022-08-07T15:02:34.241Z,48.24
2022-08-07T15:13:03.540Z,40.18
2022-08-07T15:13:35.913Z,39.76
2022-08-07T15:16:10.826Z,40.44
2022-08-07T15:18:45.429Z,41.38
2022-08-07T15:27:17.319Z,38.47
2022-08-07T15:33:01.411Z,41.54
2022-08-07T15:36:00.702Z,40.62
2022-08-07T15:38:31.076Z,38.56
2022-08-07T15:41:23.991Z,37.87
2022-08-07T15:44:12.548Z,37.73
2022-08-07T15:46:51.979Z,39.61
2022-08-07T15:52:30.265Z,38.73
2022-08-07T15:55:03.563Z,40.04
2022-08-07T15:57:47.460Z,39.36
2022-08-07T16:00:31.863Z,40.27
2022-08-07T16:03:21.706Z,40.32
2022-08-07T16:06:01.751Z,40.83
2022-08-07T16:08:38.616Z,38.17
2022-08-07T16:11:26.859Z,38.43
2022-08-07T16:14:17.149Z,38.55
2022-08-07T16:17:14.913Z,38.22
2022-08-07T16:19:59.200Z,37.91
2022-08-07T16:22:33.443Z,38.53
2022-08-07T16:25:22.754Z,38.42
2022-08-07T16:30:08.642Z,38.96
2022-08-07T16:31:51.429Z,38.16
2022-08-07T16:34:33.807Z,39.50
2022-08-07T16:38:03.965Z,39.32
2022-08-07T16:41:08.486Z,39.74
2022-08-07T16:44:03.929Z,40.22
2022-08-07T16:47:16.541Z,39.62
2022-08-07T16:50:20.822Z,40.00
2022-08-07T16:53:09.841Z,40.68
2022-08-07T16:56:11.859Z,40.55
2022-08-07T16:59:11.059Z,41.42
2022-08-07T17:02:10.749Z,40.25
2022-08-07T17:04:57.665Z,40.59
2022-08-07T17:07:55.812Z,40.57
2022-08-07T17:10:38.540Z,41.28
2022-08-07T17:13:38.715Z,40.59
2022-08-07T17:16:29.376Z,40.43
2022-08-07T17:19:05.975Z,40.67
2022-08-07T17:21:50.811Z,41.14
2022-08-07T17:24:38.834Z,41.43
2022-08-07T17:27:19.815Z,41.58
2022-08-07T17:30:14.721Z,42.22
2022-08-07T17:33:05.095Z,42.12
2022-08-07T17:35:55.751Z,43.10
2022-08-07T17:38:33.934Z,43.65
2022-08-07T17:42:00.973Z,43.95
2022-08-07T17:44:41.449Z,44.85
2022-08-07T17:47:38.267Z,44.75
2022-08-07T17:50:19.043Z,45.06
2022-08-07T17:52:59.833Z,44.85
2022-08-07T17:56:00.040Z,45.30
2022-08-07T17:58:46.533Z,44.99
2022-08-07T18:01:28.907Z,45.46
2022-08-07T18:04:21.577Z,45.50
2022-08-07T18:07:22.606Z,45.93
2022-08-07T18:10:05.930Z,45.56
2022-08-07T18:12:51.567Z,45.99
2022-08-07T18:15:33.019Z,46.21
2022-08-07T18:18:46.314Z,46.46
2022-08-07T18:21:37.277Z,46.88
2022-08-07T18:24:33.827Z,46.71
2022-08-07T18:27:39.056Z,46.96
2022-08-07T18:30:31.044Z,47.14
2022-08-07T18:33:15.120Z,47.57
2022-08-07T18:36:14.145Z,48.36
2022-08-07T18:40:08.306Z,48.73
2022-08-07T18:41:59.197Z,49.56
2022-08-07T18:45:43.639Z,49.72
2022-08-07T18:48:00.729Z,49.97
2022-08-07T18:50:57.421Z,50.78
2022-08-07T18:53:44.265Z,51.29
2022-08-07T18:56:58.290Z,51.48
2022-08-07T18:59:46.791Z,52.02
2022-08-07T19:02:55.665Z,52.54
2022-08-07T19:06:04.028Z,52.89
2022-08-07T19:08:46.297Z,53.08
2022-08-07T19:11:36.515Z,53.55
2022-08-07T19:14:17.319Z,53.38
2022-08-07T19:17:06.846Z,53.77
2022-08-07T19:20:29.314Z,53.98
2022-08-07T19:23:57.361Z,53.96
2022-08-07T19:26:24.684Z,53.92
2022-08-07T19:31:05.815Z,53.98
2022-08-07T19:32:18.511Z,54.15
2022-08-07T19:35:05.981Z,53.69
2022-08-07T19:37:56.392Z,53.97
2022-08-07T19:40:31.091Z,54.03
2022-08-07T19:43:11.025Z,53.99
2022-08-07T19:46:04.790Z,54.06
2022-08-07T19:48:42.605Z,54.47
2022-08-07T19:51:20.002Z,54.69
2022-08-07T19:54:32.103Z,54.89
2022-08-07T19:57:56.736Z,54.92
2022-08-07T19:59:41.399Z,55.23
2022-08-07T20:02:19.032Z,55.52
2022-08-07T20:04:50.382Z,55.65
2022-08-07T20:07:47.071Z,55.70
2022-08-07T20:10:36.968Z,55.95
2022-08-07T20:13:23.547Z,55.84
2022-08-07T20:15:57.811Z,55.87
2022-08-07T20:18:32.547Z,55.76
2022-08-07T20:21:02.532Z,56.09
2022-08-07T20:23:40.693Z,55.82
2022-08-07T20:26:10.739Z,55.39
2022-08-07T20:28:40.013Z,55.22
2022-08-07T20:31:21.071Z,55.46
2022-08-07T20:33:56.679Z,55.15
2022-08-07T20:36:27.380Z,54.77
2022-08-07T20:39:00.565Z,54.53
2022-08-07T20:41:38.453Z,53.85
2022-08-07T20:44:12.879Z,53.69
2022-08-07T20:46:44.408Z,54.07
2022-08-07T20:50:00.291Z,53.84
2022-08-07T20:52:06.617Z,54.37
2022-08-07T20:54:53.076Z,54.83
2022-08-07T20:57:29.969Z,55.05
2022-08-07T21:00:09.461Z,55.52
2022-08-07T21:03:00.958Z,55.72
2022-08-07T21:05:51.126Z,56.17
2022-08-07T21:08:36.469Z,57.18
2022-08-07T21:11:11.051Z,57.75
2022-08-07T21:14:16.710Z,58.36
2022-08-07T21:16:57.022Z,59.23
2022-08-07T21:19:51.784Z,61.12
2022-08-07T21:22:28.743Z,62.22
2022-08-07T21:25:13.157Z,62.07
2022-08-07T21:28:01.620Z,62.24
2022-08-07T21:30:46.927Z,62.50
2022-08-07T21:33:38.211Z,63.27
2022-08-07T21:36:31.274Z,64.03
2022-08-07T21:39:47.873Z,65.67
2022-08-07T21:42:48.962Z,66.20
2022-08-07T21:46:03.415Z,67.27
2022-08-07T21:48:34.432Z,68.59
2022-08-07T21:51:20.102Z,68.72
2022-08-07T21:54:01.211Z,68.82
2022-08-07T21:56:57.934Z,69.91
2022-08-07T22:00:03.971Z,70.15
2022-08-07T22:03:05.703Z,69.74
2022-08-07T22:05:45.530Z,71.07
2022-08-07T22:08:18.419Z,71.93
2022-08-07T22:10:50.339Z,71.51
2022-08-07T22:13:24.530Z,72.46
2022-08-07T22:16:43.092Z,72.82
2022-08-07T22:19:29.285Z,73.03
2022-08-07T22:22:27.483Z,73.33
2022-08-07T22:25:08.315Z,72.48
2022-08-07T22:28:07.750Z,74.12
2022-08-07T22:30:54.840Z,74.90
2022-08-07T22:33:52.706Z,74.40
2022-08-07T22:36:46.542Z,74.99
2022-08-07T22:39:53.532Z,75.18
2022-08-07T22:42:32.646Z,75.71
2022-08-07T22:45:11.072Z,75.96
2022-08-07T22:48:13.683Z,75.52
2022-08-07T22:51:52.032Z,76.50
2022-08-07T22:54:52.263Z,77.22
2022-08-07T22:57:59.096Z,77.40
2022-08-07T23:00:35.138Z,77.50
2022-08-07T23:03:21.594Z,77.98
2022-08-07T23:06:24.024Z,78.25
2022-08-07T23:10:04.409Z,79.02
2022-08-07T23:12:35.799Z,79.24
2022-08-07T23:16:06.348Z,79.74
2022-08-07T23:19:47.934Z,79.72
2022-08-07T23:22:24.136Z,80.47
2022-08-07T23:25:11.588Z,79.69
2022-08-07T23:28:21.632Z,80.73
2022-08-07T23:31:06.777Z,82.10
2022-08-07T23:34:20.847Z,81.69
2022-08-07T23:37:37.990Z,82.18
2022-08-07T23:40:35.432Z,83.23
2022-08-07T23:43:40.505Z,83.38
2022-08-07T23:46:27.279Z,83.60
2022-08-07T23:49:00.147Z,83.98
2022-08-07T23:52:58.476Z,84.22
2022-08-07T23:54:52.941Z,83.86
2022-08-07T23:57:52.284Z,84.99
